sensor_id;sensor_type;location;lat;lon;timestamp;temperature;humidity
27801;DHT22;15181;49.112;11.930;2022-09-24T00:01:26;8.60;99.90
27801;DHT22;15181;49.112;11.930;2022-09-24T00:03:55;8.50;99.90
27801;DHT22;15181;49.112;11.930;2022-09-24T00:06:24;8.60;99.90
27801;DHT22;15181;49.112;11.930;2022-09-24T00:08:53;8.60;99.90
27801;DHT22;15181;49.112;11.930;2022-09-24T00:11:21;8.60;99.90
27801;DHT22;15181;49.112;11.930;2022-09-24T00:13:49;8.60;99.90
27801;DHT22;15181;49.112;11.930;2022-09-24T00:16:20;8.70;99.90
27801;DHT22;15181;49.112;11.930;2022-09-24T00:18:50;8.70;99.90
27801;DHT22;15181;49.112;11.930;2022-09-24T00:21:19;8.70;99.90
27801;DHT22;15181;49.112;11.930;2022-09-24T00:23:48;8.70;99.90
27801;DHT22;15181;49.112;11.930;2022-09-24T00:26:16;8.80;99.90
27801;DHT22;15181;49.112;11.930;2022-09-24T00:29:01;8.80;99.90
27801;DHT22;15181;49.112;11.930;2022-09-24T00:31:29;8.70;99.90
27801;DHT22;15181;49.112;11.930;2022-09-24T00:33:57;8.70;99.90
27801;DHT22;15181;49.112;11.930;2022-09-24T00:36:26;8.70;99.90
27801;DHT22;15181;49.112;11.930;2022-09-24T00:38:54;8.70;99.90
27801;DHT22;15181;49.112;11.930;2022-09-24T00:41:23;8.70;99.90
27801;DHT22;15181;49.112;11.930;2022-09-24T00:43:50;8.70;99.90
27801;DHT22;15181;49.112;11.930;2022-09-24T00:46:21;8.70;99.90
27801;DHT22;15181;49.112;11.930;2022-09-24T00:48:54;8.70;99.90
27801;DHT22;15181;49.112;11.930;2022-09-24T00:51:25;8.70;99.90
27801;DHT22;15181;49.112;11.930;2022-09-24T00:53:58;8.70;99.90
27801;DHT22;15181;49.112;11.930;2022-09-24T00:56:26;8.70;99.90
27801;DHT22;15181;49.112;11.930;2022-09-24T00:58:56;8.70;99.90
27801;DHT22;15181;49.112;11.930;2022-09-24T01:01:26;8.70;99.90
27801;DHT22;15181;49.112;11.930;2022-09-24T01:03:55;8.70;99.90
27801;DHT22;15181;49.112;11.930;2022-09-24T01:06:23;8.70;99.90
27801;DHT22;15181;49.112;11.930;2022-09-24T01:08:50;8.70;99.90
27801;DHT22;15181;49.112;11.930;2022-09-24T01:11:30;8.70;99.90
27801;DHT22;15181;49.112;11.930;2022-09-24T01:14:10;8.70;99.90
27801;DHT22;15181;49.112;11.930;2022-09-24T01:16:45;8.70;99.90
27801;DHT22;15181;49.112;11.930;2022-09-24T01:19:29;8.70;99.90
27801;DHT22;15181;49.112;11.930;2022-09-24T01:22:02;8.70;99.90
27801;DHT22;15181;49.112;11.930;2022-09-24T01:24:52;8.70;99.90
27801;DHT22;15181;49.112;11.930;2022-09-24T01:27:36;8.70;99.90
27801;DHT22;15181;49.112;11.930;2022-09-24T01:30:10;8.70;99.90
27801;DHT22;15181;49.112;11.930;2022-09-24T01:32:40;8.70;99.90
27801;DHT22;15181;49.112;11.930;2022-09-24T01:35:13;8.70;99.90
27801;DHT22;15181;49.112;11.930;2022-09-24T01:37:44;8.70;99.90
27801;DHT22;15181;49.112;11.930;2022-09-24T01:40:14;8.60;99.90
27801;DHT22;15181;49.112;11.930;2022-09-24T01:42:42;8.60;99.90
27801;DHT22;15181;49.112;11.930;2022-09-24T01:45:13;8.60;99.90
27801;DHT22;15181;49.112;11.930;2022-09-24T01:47:42;8.50;99.90
27801;DHT22;15181;49.112;11.930;2022-09-24T01:50:12;8.50;99.90
27801;DHT22;15181;49.112;11.930;2022-09-24T01:52:43;8.40;99.90
27801;DHT22;15181;49.112;11.930;2022-09-24T01:55:14;8.30;99.90
27801;DHT22;15181;49.112;11.930;2022-09-24T01:57:44;8.30;99.90
27801;DHT22;15181;49.112;11.930;2022-09-24T02:00:17;8.30;99.90
27801;DHT22;15181;49.112;11.930;2022-09-24T02:02:48;8.40;99.90
27801;DHT22;15181;49.112;11.930;2022-09-24T02:05:19;8.40;99.90
27801;DHT22;15181;49.112;11.930;2022-09-24T02:07:53;8.40;99.90
27801;DHT22;15181;49.112;11.930;2022-09-24T02:10:22;8.40;99.90
27801;DHT22;15181;49.112;11.930;2022-09-24T02:12:54;8.50;99.90
27801;DHT22;15181;49.112;11.930;2022-09-24T02:15:27;8.50;99.90
27801;DHT22;15181;49.112;11.930;2022-09-24T02:17:57;8.50;99.90
27801;DHT22;15181;49.112;11.930;2022-09-24T02:20:26;8.60;99.90
27801;DHT22;15181;49.112;11.930;2022-09-24T02:22:55;8.50;99.90
27801;DHT22;15181;49.112;11.930;2022-09-24T02:25:28;8.50;99.90
27801;DHT22;15181;49.112;11.930;2022-09-24T02:27:55;8.50;99.90
27801;DHT22;15181;49.112;11.930;2022-09-24T02:30:23;8.50;99.90
27801;DHT22;15181;49.112;11.930;2022-09-24T02:32:53;8.40;99.90
27801;DHT22;15181;49.112;11.930;2022-09-24T02:35:21;8.40;99.90
27801;DHT22;15181;49.112;11.930;2022-09-24T02:37:47;8.40;99.90
27801;DHT22;15181;49.112;11.930;2022-09-24T02:40:13;8.40;99.90
27801;DHT22;15181;49.112;11.930;2022-09-24T02:42:42;8.40;99.90
27801;DHT22;15181;49.112;11.930;2022-09-24T02:45:09;8.40;99.90
27801;DHT22;15181;49.112;11.930;2022-09-24T02:47:38;8.40;99.90
27801;DHT22;15181;49.112;11.930;2022-09-24T02:50:06;8.40;99.90
27801;DHT22;15181;49.112;11.930;2022-09-24T02:52:32;8.40;99.90
27801;DHT22;15181;49.112;11.930;2022-09-24T02:55:00;8.40;99.90
27801;DHT22;15181;49.112;11.930;2022-09-24T02:57:26;8.40;99.90
27801;DHT22;15181;49.112;11.930;2022-09-24T02:59:53;8.30;99.90
27801;DHT22;15181;49.112;11.930;2022-09-24T03:02:20;8.30;99.90
27801;DHT22;15181;49.112;11.930;2022-09-24T03:04:48;8.20;99.90
27801;DHT22;15181;49.112;11.930;2022-09-24T03:07:16;8.20;99.90
27801;DHT22;15181;49.112;11.930;2022-09-24T03:09:43;8.10;99.90
27801;DHT22;15181;49.112;11.930;2022-09-24T03:12:10;8.00;99.90
27801;DHT22;15181;49.112;11.930;2022-09-24T03:14:37;7.90;99.90
27801;DHT22;15181;49.112;11.930;2022-09-24T03:17:04;7.80;99.90
27801;DHT22;15181;49.112;11.930;2022-09-24T03:19:31;7.80;99.90
27801;DHT22;15181;49.112;11.930;2022-09-24T03:21:59;7.80;99.90
27801;DHT22;15181;49.112;11.930;2022-09-24T03:24:26;7.80;99.90
27801;DHT22;15181;49.112;11.930;2022-09-24T03:26:53;7.80;99.90
27801;DHT22;15181;49.112;11.930;2022-09-24T03:29:20;7.80;99.90
27801;DHT22;15181;49.112;11.930;2022-09-24T03:32:07;7.80;99.90
27801;DHT22;15181;49.112;11.930;2022-09-24T03:34:33;7.90;99.90
27801;DHT22;15181;49.112;11.930;2022-09-24T03:37:01;7.90;99.90
27801;DHT22;15181;49.112;11.930;2022-09-24T03:39:28;7.90;99.90
27801;DHT22;15181;49.112;11.930;2022-09-24T03:41:55;7.90;99.90
27801;DHT22;15181;49.112;11.930;2022-09-24T03:44:21;7.80;99.90
27801;DHT22;15181;49.112;11.930;2022-09-24T03:46:48;7.60;99.90
27801;DHT22;15181;49.112;11.930;2022-09-24T03:49:15;7.60;99.90
27801;DHT22;15181;49.112;11.930;2022-09-24T03:51:42;7.60;99.90
27801;DHT22;15181;49.112;11.930;2022-09-24T03:54:11;7.60;99.90
27801;DHT22;15181;49.112;11.930;2022-09-24T03:56:38;7.60;99.90
27801;DHT22;15181;49.112;11.930;2022-09-24T03:59:05;7.60;99.90
27801;DHT22;15181;49.112;11.930;2022-09-24T04:01:32;7.60;99.90
27801;DHT22;15181;49.112;11.930;2022-09-24T04:04:02;7.60;99.90
27801;DHT22;15181;49.112;11.930;2022-09-24T04:06:29;7.60;99.90
27801;DHT22;15181;49.112;11.930;2022-09-24T04:08:56;7.50;99.90
27801;DHT22;15181;49.112;11.930;2022-09-24T04:11:26;7.50;99.90
27801;DHT22;15181;49.112;11.930;2022-09-24T04:13:53;7.50;99.90
27801;DHT22;15181;49.112;11.930;2022-09-24T04:16:20;7.60;99.90
27801;DHT22;15181;49.112;11.930;2022-09-24T04:18:47;7.60;99.90
27801;DHT22;15181;49.112;11.930;2022-09-24T04:21:14;7.60;99.90
27801;DHT22;15181;49.112;11.930;2022-09-24T04:23:40;7.50;99.90
27801;DHT22;15181;49.112;11.930;2022-09-24T04:26:07;7.50;99.90
27801;DHT22;15181;49.112;11.930;2022-09-24T04:28:36;7.50;99.90
27801;DHT22;15181;49.112;11.930;2022-09-24T04:31:03;7.50;99.90
27801;DHT22;15181;49.112;11.930;2022-09-24T04:33:30;7.50;99.90
27801;DHT22;15181;49.112;11.930;2022-09-24T04:35:57;7.50;99.90
27801;DHT22;15181;49.112;11.930;2022-09-24T04:38:24;7.50;99.90
27801;DHT22;15181;49.112;11.930;2022-09-24T04:40:51;7.60;99.90
27801;DHT22;15181;49.112;11.930;2022-09-24T04:43:18;7.60;99.90
27801;DHT22;15181;49.112;11.930;2022-09-24T04:45:46;7.60;99.90
27801;DHT22;15181;49.112;11.930;2022-09-24T04:48:13;7.70;99.90
27801;DHT22;15181;49.112;11.930;2022-09-24T04:50:40;7.60;99.90
27801;DHT22;15181;49.112;11.930;2022-09-24T04:53:07;7.60;99.90
27801;DHT22;15181;49.112;11.930;2022-09-24T04:55:34;7.50;99.90
27801;DHT22;15181;49.112;11.930;2022-09-24T04:58:01;7.50;99.90
27801;DHT22;15181;49.112;11.930;2022-09-24T05:00:28;7.50;99.90
27801;DHT22;15181;49.112;11.930;2022-09-24T05:03:00;7.50;99.90
27801;DHT22;15181;49.112;11.930;2022-09-24T05:05:28;7.60;99.90
27801;DHT22;15181;49.112;11.930;2022-09-24T05:07:56;7.60;99.90
27801;DHT22;15181;49.112;11.930;2022-09-24T05:10:23;7.70;99.90
27801;DHT22;15181;49.112;11.930;2022-09-24T05:12:50;7.60;99.90
27801;DHT22;15181;49.112;11.930;2022-09-24T05:15:17;7.70;99.90
27801;DHT22;15181;49.112;11.930;2022-09-24T05:17:45;7.70;99.90
27801;DHT22;15181;49.112;11.930;2022-09-24T05:20:14;7.70;99.90
27801;DHT22;15181;49.112;11.930;2022-09-24T05:22:42;7.70;99.90
27801;DHT22;15181;49.112;11.930;2022-09-24T05:25:09;7.70;99.90
27801;DHT22;15181;49.112;11.930;2022-09-24T05:27:37;7.70;99.90
27801;DHT22;15181;49.112;11.930;2022-09-24T05:30:08;7.70;99.90
27801;DHT22;15181;49.112;11.930;2022-09-24T05:32:35;7.70;99.90
27801;DHT22;15181;49.112;11.930;2022-09-24T05:35:02;7.80;99.90
27801;DHT22;15181;49.112;11.930;2022-09-24T05:37:32;7.80;99.90
27801;DHT22;15181;49.112;11.930;2022-09-24T05:39:59;7.80;99.90
27801;DHT22;15181;49.112;11.930;2022-09-24T05:42:46;7.90;99.90
27801;DHT22;15181;49.112;11.930;2022-09-24T05:45:13;7.90;99.90
27801;DHT22;15181;49.112;11.930;2022-09-24T05:47:43;8.00;99.90
27801;DHT22;15181;49.112;11.930;2022-09-24T05:50:10;8.00;99.90
27801;DHT22;15181;49.112;11.930;2022-09-24T05:52:39;8.00;99.90
27801;DHT22;15181;49.112;11.930;2022-09-24T05:55:08;8.00;99.90
27801;DHT22;15181;49.112;11.930;2022-09-24T05:57:36;8.10;99.90
27801;DHT22;15181;49.112;11.930;2022-09-24T06:00:05;8.10;99.90
27801;DHT22;15181;49.112;11.930;2022-09-24T06:02:32;8.10;99.90
27801;DHT22;15181;49.112;11.930;2022-09-24T06:04:59;8.20;99.90
27801;DHT22;15181;49.112;11.930;2022-09-24T06:07:26;8.20;99.90
27801;DHT22;15181;49.112;11.930;2022-09-24T06:09:54;8.20;99.90
27801;DHT22;15181;49.112;11.930;2022-09-24T06:12:23;8.30;99.90
27801;DHT22;15181;49.112;11.930;2022-09-24T06:14:50;8.30;99.90
27801;DHT22;15181;49.112;11.930;2022-09-24T06:17:18;8.40;99.90
27801;DHT22;15181;49.112;11.930;2022-09-24T06:19:45;8.40;99.90
27801;DHT22;15181;49.112;11.930;2022-09-24T06:22:12;8.40;99.90
27801;DHT22;15181;49.112;11.930;2022-09-24T06:24:39;8.40;99.90
27801;DHT22;15181;49.112;11.930;2022-09-24T06:27:07;8.50;99.90
27801;DHT22;15181;49.112;11.930;2022-09-24T06:29:34;8.50;99.90
27801;DHT22;15181;49.112;11.930;2022-09-24T06:32:01;8.50;99.90
27801;DHT22;15181;49.112;11.930;2022-09-24T06:34:28;8.40;99.90
27801;DHT22;15181;49.112;11.930;2022-09-24T06:36:55;8.30;99.90
27801;DHT22;15181;49.112;11.930;2022-09-24T06:39:23;8.40;99.90
27801;DHT22;15181;49.112;11.930;2022-09-24T06:41:51;8.40;99.90
27801;DHT22;15181;49.112;11.930;2022-09-24T06:44:19;8.50;99.90
27801;DHT22;15181;49.112;11.930;2022-09-24T06:46:46;8.50;99.90
27801;DHT22;15181;49.112;11.930;2022-09-24T06:49:13;8.50;99.90
27801;DHT22;15181;49.112;11.930;2022-09-24T06:51:40;8.60;99.90
27801;DHT22;15181;49.112;11.930;2022-09-24T06:54:07;8.60;99.90
27801;DHT22;15181;49.112;11.930;2022-09-24T06:56:34;8.60;99.90
27801;DHT22;15181;49.112;11.930;2022-09-24T06:59:00;8.70;99.90
27801;DHT22;15181;49.112;11.930;2022-09-24T07:01:29;8.70;99.90
27801;DHT22;15181;49.112;11.930;2022-09-24T07:03:55;8.70;99.90
27801;DHT22;15181;49.112;11.930;2022-09-24T07:06:22;8.70;99.90
27801;DHT22;15181;49.112;11.930;2022-09-24T07:08:49;8.80;99.90
27801;DHT22;15181;49.112;11.930;2022-09-24T07:11:16;8.90;99.90
27801;DHT22;15181;49.112;11.930;2022-09-24T07:13:43;9.00;99.90
27801;DHT22;15181;49.112;11.930;2022-09-24T07:16:10;9.10;99.90
27801;DHT22;15181;49.112;11.930;2022-09-24T07:18:38;9.10;99.90
27801;DHT22;15181;49.112;11.930;2022-09-24T07:21:05;9.20;99.90
27801;DHT22;15181;49.112;11.930;2022-09-24T07:23:32;9.40;99.90
27801;DHT22;15181;49.112;11.930;2022-09-24T07:25:59;9.50;99.90
27801;DHT22;15181;49.112;11.930;2022-09-24T07:28:26;9.50;99.90
27801;DHT22;15181;49.112;11.930;2022-09-24T07:30:57;9.60;99.90
27801;DHT22;15181;49.112;11.930;2022-09-24T07:33:24;9.70;99.90
27801;DHT22;15181;49.112;11.930;2022-09-24T07:35:53;9.80;99.90
27801;DHT22;15181;49.112;11.930;2022-09-24T07:38:19;10.00;99.90
27801;DHT22;15181;49.112;11.930;2022-09-24T07:40:46;10.10;99.90
27801;DHT22;15181;49.112;11.930;2022-09-24T07:43:13;10.20;99.90
27801;DHT22;15181;49.112;11.930;2022-09-24T07:45:41;10.30;99.90
27801;DHT22;15181;49.112;11.930;2022-09-24T07:48:09;10.50;99.90
27801;DHT22;15181;49.112;11.930;2022-09-24T07:50:38;10.60;99.90
27801;DHT22;15181;49.112;11.930;2022-09-24T07:53:08;10.60;99.90
27801;DHT22;15181;49.112;11.930;2022-09-24T07:55:35;10.70;99.90
27801;DHT22;15181;49.112;11.930;2022-09-24T07:58:05;10.80;99.90
27801;DHT22;15181;49.112;11.930;2022-09-24T08:00:32;10.90;99.90
27801;DHT22;15181;49.112;11.930;2022-09-24T08:03:00;10.90;99.90
27801;DHT22;15181;49.112;11.930;2022-09-24T08:05:27;11.00;99.90
27801;DHT22;15181;49.112;11.930;2022-09-24T08:07:56;11.00;99.90
27801;DHT22;15181;49.112;11.930;2022-09-24T08:10:25;11.10;99.90
27801;DHT22;15181;49.112;11.930;2022-09-24T08:12:53;11.10;99.90
27801;DHT22;15181;49.112;11.930;2022-09-24T08:15:21;11.20;99.90
27801;DHT22;15181;49.112;11.930;2022-09-24T08:17:48;11.30;99.90
27801;DHT22;15181;49.112;11.930;2022-09-24T08:20:15;11.40;99.90
27801;DHT22;15181;49.112;11.930;2022-09-24T08:22:42;11.40;99.90
27801;DHT22;15181;49.112;11.930;2022-09-24T08:25:09;11.40;99.90
27801;DHT22;15181;49.112;11.930;2022-09-24T08:27:37;11.60;99.90
27801;DHT22;15181;49.112;11.930;2022-09-24T08:30:05;11.60;99.90
27801;DHT22;15181;49.112;11.930;2022-09-24T08:32:32;11.70;99.90
27801;DHT22;15181;49.112;11.930;2022-09-24T08:34:59;11.80;99.90
27801;DHT22;15181;49.112;11.930;2022-09-24T08:37:27;11.90;99.90
27801;DHT22;15181;49.112;11.930;2022-09-24T08:39:54;11.90;99.90
27801;DHT22;15181;49.112;11.930;2022-09-24T08:42:31;12.10;99.90
27801;DHT22;15181;49.112;11.930;2022-09-24T08:45:03;12.20;99.90
27801;DHT22;15181;49.112;11.930;2022-09-24T08:47:51;12.20;99.90
27801;DHT22;15181;49.112;11.930;2022-09-24T08:50:22;12.30;99.90
27801;DHT22;15181;49.112;11.930;2022-09-24T08:53:00;12.30;99.90
27801;DHT22;15181;49.112;11.930;2022-09-24T08:55:32;12.30;99.90
27801;DHT22;15181;49.112;11.930;2022-09-24T08:58:11;12.30;99.90
27801;DHT22;15181;49.112;11.930;2022-09-24T09:00:45;12.30;99.90
27801;DHT22;15181;49.112;11.930;2022-09-24T09:03:19;12.40;99.90
27801;DHT22;15181;49.112;11.930;2022-09-24T09:05:53;12.60;99.90
27801;DHT22;15181;49.112;11.930;2022-09-24T09:08:29;12.70;99.90
27801;DHT22;15181;49.112;11.930;2022-09-24T09:11:01;12.80;99.90
27801;DHT22;15181;49.112;11.930;2022-09-24T09:13:33;12.90;99.90
27801;DHT22;15181;49.112;11.930;2022-09-24T09:16:05;13.00;99.90
27801;DHT22;15181;49.112;11.930;2022-09-24T09:18:36;13.10;99.90
27801;DHT22;15181;49.112;11.930;2022-09-24T09:21:13;13.20;99.90
27801;DHT22;15181;49.112;11.930;2022-09-24T09:23:46;13.30;99.90
27801;DHT22;15181;49.112;11.930;2022-09-24T09:26:13;13.40;99.90
27801;DHT22;15181;49.112;11.930;2022-09-24T09:28:41;13.50;99.90
27801;DHT22;15181;49.112;11.930;2022-09-24T09:31:20;13.60;99.90
27801;DHT22;15181;49.112;11.930;2022-09-24T09:34:15;13.70;99.90
27801;DHT22;15181;49.112;11.930;2022-09-24T09:36:59;13.90;99.90
27801;DHT22;15181;49.112;11.930;2022-09-24T09:39:33;14.10;99.90
27801;DHT22;15181;49.112;11.930;2022-09-24T09:42:14;14.20;99.90
27801;DHT22;15181;49.112;11.930;2022-09-24T09:44:43;14.50;99.90
27801;DHT22;15181;49.112;11.930;2022-09-24T09:47:23;14.60;99.90
27801;DHT22;15181;49.112;11.930;2022-09-24T09:49:54;14.80;99.90
27801;DHT22;15181;49.112;11.930;2022-09-24T09:52:25;14.90;99.90
27801;DHT22;15181;49.112;11.930;2022-09-24T09:54:53;14.90;99.90
27801;DHT22;15181;49.112;11.930;2022-09-24T09:57:22;15.00;99.90
27801;DHT22;15181;49.112;11.930;2022-09-24T09:59:52;15.00;99.90
27801;DHT22;15181;49.112;11.930;2022-09-24T10:02:27;15.00;99.90
27801;DHT22;15181;49.112;11.930;2022-09-24T10:04:57;15.00;99.90
27801;DHT22;15181;49.112;11.930;2022-09-24T10:07:24;15.00;99.90
27801;DHT22;15181;49.112;11.930;2022-09-24T10:10:00;15.00;99.90
27801;DHT22;15181;49.112;11.930;2022-09-24T10:12:28;15.10;99.90
27801;DHT22;15181;49.112;11.930;2022-09-24T10:14:57;15.10;99.90
27801;DHT22;15181;49.112;11.930;2022-09-24T10:17:30;15.10;99.90
27801;DHT22;15181;49.112;11.930;2022-09-24T10:20:00;15.20;99.90
27801;DHT22;15181;49.112;11.930;2022-09-24T10:22:28;15.20;99.90
27801;DHT22;15181;49.112;11.930;2022-09-24T10:24:58;15.30;99.90
27801;DHT22;15181;49.112;11.930;2022-09-24T10:27:32;15.30;99.90
27801;DHT22;15181;49.112;11.930;2022-09-24T10:30:02;15.30;99.90
27801;DHT22;15181;49.112;11.930;2022-09-24T10:32:59;15.30;99.90
27801;DHT22;15181;49.112;11.930;2022-09-24T10:35:28;15.10;99.90
27801;DHT22;15181;49.112;11.930;2022-09-24T10:37:57;15.10;99.90
27801;DHT22;15181;49.112;11.930;2022-09-24T10:40:26;15.10;99.90
27801;DHT22;15181;49.112;11.930;2022-09-24T10:42:56;15.10;99.90
27801;DHT22;15181;49.112;11.930;2022-09-24T10:48:15;15.20;99.90
27801;DHT22;15181;49.112;11.930;2022-09-24T10:50:47;15.20;99.90
27801;DHT22;15181;49.112;11.930;2022-09-24T10:53:25;15.10;99.90
27801;DHT22;15181;49.112;11.930;2022-09-24T10:56:00;15.20;99.90
27801;DHT22;15181;49.112;11.930;2022-09-24T10:58:58;15.10;99.90
27801;DHT22;15181;49.112;11.930;2022-09-24T11:01:36;15.20;99.90
27801;DHT22;15181;49.112;11.930;2022-09-24T11:04:18;15.20;99.90
27801;DHT22;15181;49.112;11.930;2022-09-24T11:06:58;15.20;99.90
27801;DHT22;15181;49.112;11.930;2022-09-24T11:09:39;15.20;99.90
27801;DHT22;15181;49.112;11.930;2022-09-24T11:12:12;15.20;99.90
27801;DHT22;15181;49.112;11.930;2022-09-24T11:14:54;15.20;99.90
27801;DHT22;15181;49.112;11.930;2022-09-24T11:17:35;15.20;99.90
27801;DHT22;15181;49.112;11.930;2022-09-24T11:20:16;15.20;99.90
27801;DHT22;15181;49.112;11.930;2022-09-24T11:23:14;15.20;99.90
27801;DHT22;15181;49.112;11.930;2022-09-24T11:25:51;15.20;99.90
27801;DHT22;15181;49.112;11.930;2022-09-24T11:28:46;15.20;99.90
27801;DHT22;15181;49.112;11.930;2022-09-24T11:31:24;15.20;99.90
27801;DHT22;15181;49.112;11.930;2022-09-24T11:34:12;15.10;99.90
27801;DHT22;15181;49.112;11.930;2022-09-24T11:37:08;15.10;99.90
27801;DHT22;15181;49.112;11.930;2022-09-24T11:39:52;15.10;99.90
27801;DHT22;15181;49.112;11.930;2022-09-24T11:42:23;15.20;99.90
27801;DHT22;15181;49.112;11.930;2022-09-24T11:45:32;15.20;99.90
27801;DHT22;15181;49.112;11.930;2022-09-24T11:48:35;15.20;99.90
27801;DHT22;15181;49.112;11.930;2022-09-24T11:51:17;15.20;99.90
27801;DHT22;15181;49.112;11.930;2022-09-24T11:53:53;15.20;99.90
27801;DHT22;15181;49.112;11.930;2022-09-24T11:56:24;15.20;99.90
27801;DHT22;15181;49.112;11.930;2022-09-24T11:58:55;15.20;99.90
27801;DHT22;15181;49.112;11.930;2022-09-24T12:01:27;15.30;99.90
27801;DHT22;15181;49.112;11.930;2022-09-24T12:03:58;15.20;99.90
27801;DHT22;15181;49.112;11.930;2022-09-24T12:06:30;15.20;99.90
27801;DHT22;15181;49.112;11.930;2022-09-24T12:09:06;15.30;99.90
27801;DHT22;15181;49.112;11.930;2022-09-24T12:11:38;15.20;99.90
27801;DHT22;15181;49.112;11.930;2022-09-24T12:14:12;15.20;99.90
27801;DHT22;15181;49.112;11.930;2022-09-24T12:16:42;15.10;99.90
27801;DHT22;15181;49.112;11.930;2022-09-24T12:19:17;15.00;99.90
27801;DHT22;15181;49.112;11.930;2022-09-24T12:21:48;15.00;99.90
27801;DHT22;15181;49.112;11.930;2022-09-24T12:24:22;15.00;99.90
27801;DHT22;15181;49.112;11.930;2022-09-24T12:26:52;15.00;99.90
27801;DHT22;15181;49.112;11.930;2022-09-24T12:29:32;15.00;99.90
27801;DHT22;15181;49.112;11.930;2022-09-24T12:32:22;15.00;99.90
27801;DHT22;15181;49.112;11.930;2022-09-24T12:35:16;15.00;99.90
27801;DHT22;15181;49.112;11.930;2022-09-24T12:37:46;15.00;99.90
27801;DHT22;15181;49.112;11.930;2022-09-24T12:43:18;15.00;99.90
27801;DHT22;15181;49.112;11.930;2022-09-24T12:45:53;15.00;99.90
27801;DHT22;15181;49.112;11.930;2022-09-24T12:48:22;14.90;99.90
27801;DHT22;15181;49.112;11.930;2022-09-24T12:50:55;14.90;99.90
27801;DHT22;15181;49.112;11.930;2022-09-24T12:53:24;14.90;99.90
27801;DHT22;15181;49.112;11.930;2022-09-24T12:55:59;14.90;99.90
27801;DHT22;15181;49.112;11.930;2022-09-24T12:58:29;14.90;99.90
27801;DHT22;15181;49.112;11.930;2022-09-24T13:01:07;14.90;99.90
27801;DHT22;15181;49.112;11.930;2022-09-24T13:03:38;14.90;99.90
27801;DHT22;15181;49.112;11.930;2022-09-24T13:06:19;14.90;99.90
27801;DHT22;15181;49.112;11.930;2022-09-24T13:08:47;15.00;99.90
27801;DHT22;15181;49.112;11.930;2022-09-24T13:11:29;15.00;99.90
27801;DHT22;15181;49.112;11.930;2022-09-24T13:14:04;15.00;99.90
27801;DHT22;15181;49.112;11.930;2022-09-24T13:16:39;15.10;99.90
27801;DHT22;15181;49.112;11.930;2022-09-24T13:19:22;15.10;99.90
27801;DHT22;15181;49.112;11.930;2022-09-24T13:21:54;15.10;99.90
27801;DHT22;15181;49.112;11.930;2022-09-24T13:24:25;15.00;99.90
27801;DHT22;15181;49.112;11.930;2022-09-24T13:27:07;15.00;99.90
27801;DHT22;15181;49.112;11.930;2022-09-24T13:29:37;15.00;99.90
27801;DHT22;15181;49.112;11.930;2022-09-24T13:32:07;15.00;99.90
27801;DHT22;15181;49.112;11.930;2022-09-24T13:34:37;14.90;99.90
27801;DHT22;15181;49.112;11.930;2022-09-24T13:37:10;14.90;99.90
27801;DHT22;15181;49.112;11.930;2022-09-24T13:39:43;14.90;99.90
27801;DHT22;15181;49.112;11.930;2022-09-24T13:42:17;14.90;99.90
27801;DHT22;15181;49.112;11.930;2022-09-24T13:44:46;14.90;99.90
27801;DHT22;15181;49.112;11.930;2022-09-24T13:47:23;14.80;99.90
27801;DHT22;15181;49.112;11.930;2022-09-24T13:49:58;14.80;99.90
27801;DHT22;15181;49.112;11.930;2022-09-24T13:52:29;14.80;99.90
27801;DHT22;15181;49.112;11.930;2022-09-24T13:55:01;14.90;99.90
27801;DHT22;15181;49.112;11.930;2022-09-24T13:57:41;14.90;99.90
27801;DHT22;15181;49.112;11.930;2022-09-24T14:00:13;14.90;99.90
27801;DHT22;15181;49.112;11.930;2022-09-24T14:02:42;14.90;99.90
27801;DHT22;15181;49.112;11.930;2022-09-24T14:05:17;14.80;99.90
27801;DHT22;15181;49.112;11.930;2022-09-24T14:07:53;14.80;99.90
27801;DHT22;15181;49.112;11.930;2022-09-24T14:10:21;14.80;99.90
27801;DHT22;15181;49.112;11.930;2022-09-24T14:13:00;14.90;99.90
27801;DHT22;15181;49.112;11.930;2022-09-24T14:15:27;14.80;99.90
27801;DHT22;15181;49.112;11.930;2022-09-24T14:17:56;14.80;99.90
27801;DHT22;15181;49.112;11.930;2022-09-24T14:20:25;14.80;99.90
27801;DHT22;15181;49.112;11.930;2022-09-24T14:22:53;14.80;99.90
27801;DHT22;15181;49.112;11.930;2022-09-24T14:25:26;14.70;99.90
27801;DHT22;15181;49.112;11.930;2022-09-24T14:27:55;14.80;99.90
27801;DHT22;15181;49.112;11.930;2022-09-24T14:30:26;14.70;99.90
27801;DHT22;15181;49.112;11.930;2022-09-24T14:32:56;14.70;99.90
27801;DHT22;15181;49.112;11.930;2022-09-24T14:35:27;14.70;99.90
27801;DHT22;15181;49.112;11.930;2022-09-24T14:37:59;14.70;99.90
27801;DHT22;15181;49.112;11.930;2022-09-24T14:40:29;14.70;99.90
27801;DHT22;15181;49.112;11.930;2022-09-24T14:43:04;14.70;99.90
27801;DHT22;15181;49.112;11.930;2022-09-24T14:45:34;14.70;99.90
27801;DHT22;15181;49.112;11.930;2022-09-24T14:48:04;14.70;99.90
27801;DHT22;15181;49.112;11.930;2022-09-24T14:50:36;14.70;99.90
27801;DHT22;15181;49.112;11.930;2022-09-24T14:53:11;14.70;99.90
27801;DHT22;15181;49.112;11.930;2022-09-24T14:55:39;14.70;99.90
27801;DHT22;15181;49.112;11.930;2022-09-24T14:58:22;14.70;99.90
27801;DHT22;15181;49.112;11.930;2022-09-24T15:00:53;14.70;99.90
27801;DHT22;15181;49.112;11.930;2022-09-24T15:03:26;14.60;99.90
27801;DHT22;15181;49.112;11.930;2022-09-24T15:06:02;14.60;99.90
27801;DHT22;15181;49.112;11.930;2022-09-24T15:08:29;14.50;99.90
27801;DHT22;15181;49.112;11.930;2022-09-24T15:10:58;14.50;99.90
27801;DHT22;15181;49.112;11.930;2022-09-24T15:13:29;14.50;99.90
27801;DHT22;15181;49.112;11.930;2022-09-24T15:16:06;14.40;99.90
27801;DHT22;15181;49.112;11.930;2022-09-24T15:18:41;14.50;99.90
27801;DHT22;15181;49.112;11.930;2022-09-24T15:21:09;14.40;99.90
27801;DHT22;15181;49.112;11.930;2022-09-24T15:23:37;14.40;99.90
27801;DHT22;15181;49.112;11.930;2022-09-24T15:26:04;14.40;99.90
27801;DHT22;15181;49.112;11.930;2022-09-24T15:28:31;14.40;99.90
27801;DHT22;15181;49.112;11.930;2022-09-24T15:30:58;14.40;99.90
27801;DHT22;15181;49.112;11.930;2022-09-24T15:33:26;14.30;99.90
27801;DHT22;15181;49.112;11.930;2022-09-24T15:35:53;14.30;99.90
27801;DHT22;15181;49.112;11.930;2022-09-24T15:38:20;14.30;99.90
27801;DHT22;15181;49.112;11.930;2022-09-24T15:40:47;14.30;99.90
27801;DHT22;15181;49.112;11.930;2022-09-24T15:43:20;14.30;99.90
27801;DHT22;15181;49.112;11.930;2022-09-24T15:45:47;14.30;99.90
27801;DHT22;15181;49.112;11.930;2022-09-24T15:48:14;14.30;99.90
27801;DHT22;15181;49.112;11.930;2022-09-24T15:50:44;14.30;99.90
27801;DHT22;15181;49.112;11.930;2022-09-24T15:53:17;14.30;99.90